Meleuz, Russia
Current Conditions -  °F | °C
As of 3:30 AM on Saturday 20 Dec 2014 (Local Time) from UWOO Reporting Station
Light Snow Light Snow  
Wind Chill: 19°   Ceiling: 600
Heat Index: 27°   Visibility: 2mi
Dew Point: 25°   Wind: 7mph
Humidity: 93%   Direction: 170°S
Pressure: 30.06"   Gusts: NA
Location:  52.97°N, 55.92°E
Report Text: UWOO 192230Z 17003MPS 3200 -SN OVC006 M03/M04 Q1018 08490234TEMPO 0500 FZRA SN VV002 RMK QBB200 QFE753/1004
Loading
Personal Weather Stations






























Interactive Weather Map New forecast layout! Learn more

10-Day Weather Forecast

Advertisements
Track Severe Weather on mobile